Nearby METAR Reports

 

CYYJ - Victoria Intl Ar, British Columbia, Canada
Distance from station: N 6km
Updated: 25/02/2024 07:00
Overcast
Overcast
 Wind from S
Wind: S 22 km/h
Temperature: 8°C
Wind Chill: 4°C
Dew Point: 7°C
Humidity: 93%
Barometer: 1007.8 hPa
Clouds: Overcast
Visibility: 32 km
Cloud details: Few Clouds 366 m
Mostly cloudy 823 m
Overcast 3658 m
2024/02/25 15:00 CYYJ 251500Z 17012KT 20SM FEW012 BKN027 OVC120 08/07 A2976 RMK SF1SC5AC3 SF TR SLP080
CWKH - Malahat (autob), British Columbia, Canada
Distance from station: WSW 10km
Updated: 25/02/2024 07:00

 
Temperature: 5°C
Dew Point: 5°C
Humidity: 100%
2024/02/25 15:00 CWKH 251500Z AUTO 05/05 RMK AO1 SLP067 T00530050 58023
 
CWPF - Esquimalt Metoc, British Columbia, Canada
Distance from station: S 18km
Updated: 25/02/2024 07:45

 Wind from SSW
Wind: SSW 28 km/h
Temperature: 9°C
Wind Chill: 6°C
Dew Point: 6°C
Humidity: 82%
2024/02/25 15:45 CWPF 251545Z AUTO 21015KT 09/06 RMK AO1 PK WND 21024/1545 SLP087 T00850055 58021
CWYJ - Victoria Univ, British Columbia, Canada
Distance from station: SSE 18km
Updated: 25/02/2024 07:00

 Wind from WSW
Wind: WSW 11 km/h
Temperature: 8°C
Wind Chill: 6°C
Dew Point: 6°C
Humidity: 87%
2024/02/25 15:00 CWYJ 251500Z AUTO 25006KT 08/06 RMK AO1 6PAST HR 8021 PK WND 22017/1408 SLP088 P0002 T00770064 50008
 
CYWH - Victoria Harbour, British Columbia, Canada
Distance from station: S 20km
Updated: 25/02/2024 07:00
Light rain, Overcast
Light rain, Overcast
 Wind from WSW
Wind: WSW 26 km/h, Gust: 35 km/h
Temperature: 8°C
Wind Chill: 4°C
Dew Point: 7°C
Humidity: 93%
Barometer: 1009.1 hPa
Summary: Light rain
Clouds: Overcast
Visibility: 11 km
Cloud details: Few Clouds 244 m
Partly cloudy 762 m
Overcast 1524 m
2024/02/25 15:00 CYWH 251500Z 24014G19KT 7SM -RA FEW008 SCT025 OVC050 08/07 A2980 RMK SF2SC2SC4 SLP092
CWLM - Victoria (autob), British Columbia, Canada
Distance from station: SSE 21km
Updated: 25/02/2024 07:00

 Wind from WSW
Wind: WSW 31 km/h, Gust: 44 km/h
Temperature: 8°C
Wind Chill: 3°C
Dew Point: 6°C
Humidity: 87%
2024/02/25 15:00 CWLM 251500Z AUTO 25017G24KT 08/06 RMK AO1 4PAST HR 6023 PK WND 26029/1436 SLP083 P0002 T00780055 50006
 
KFHR - Friday Harbor, Washington, USA
Distance from station: ESE 30km
Updated: 25/02/2024 06:53
Light rain, Overcast
Light rain, Overcast
 Wind from S
Wind: S 13 km/h
Temperature: 9°C
Wind Chill: 7°C
Dew Point: 7°C
Humidity: 87%
Barometer: 1009.5 hPa
Summary: Light rain
Clouds: Overcast
Visibility: 16 km
Cloud details: Partly cloudy 427 m
Mostly cloudy 1524 m
Overcast 3353 m
2024/02/25 14:53 KFHR 251453Z AUTO 19007KT 10SM -RA SCT014 BKN050 OVC110 09/07 A2981 RMK AO2 RAB04 SLP096 P0001 60004 T00940067 58021 $
CWQK - Race Rocks Autob, British Columbia, Canada
Distance from station: SSW 34km
Updated: 25/02/2024 07:00

 Wind from W
Wind: W 43 km/h
Temperature: 8°C
Wind Chill: 3°C
Dew Point: 7°C
Humidity: 93%
2024/02/25 15:00 CWQK 251500Z AUTO 27023KT 08/07 RMK AO1 PK WND 27026/1421 SLP089 T00820070 58022
 
CWEZ - Saturna Isl (map, British Columbia, Canada
Distance from station: NE 35km
Updated: 25/02/2024 07:00

 Wind from S
Wind: S 35 km/h, Gust: 44 km/h
Temperature: 8°C
Wind Chill: 3°C
Dew Point: 7°C
Humidity: 93%
2024/02/25 15:00 CWEZ 251500Z AUTO 19019G24KT 08/07 RMK AO1 8025 PK WND 19024/1424 SLP079 T00780071 50010
KORS - Eastsound/Orcas, Washington, USA
Distance from station: ENE 39km
Updated: 25/02/2024 07:35
Overcast
Overcast
 Wind from S
Wind: S 19 km/h
Temperature: 8°C
Wind Chill: 4°C
Dew Point: 7°C
Humidity: 93%
Barometer: 1007.8 hPa
Clouds: Overcast
Visibility: 16 km
Cloud details: Partly cloudy 1433 m
Overcast 1981 m
2024/02/25 15:35 KORS 251535Z AUTO 18010KT 10SM SCT047 OVC065 08/07 A2976 RMK AO2
 
CWSP - Sheringham Autob, British Columbia, Canada
Distance from station: WSW 43km
Updated: 25/02/2024 07:00

 Wind from W
Wind: W 41 km/h
Temperature: 8°C
Wind Chill: 3°C
Dew Point: 7°C
Humidity: 93%
2024/02/25 15:00 CWSP 251500Z AUTO 27022KT 08/07 RMK AO1 6PAST HR 8026 PK WND 27024/1500 SLP097 P0006 T00810073 50040